createdAt,value
2022-12-13T07:25:27.044Z,100622.69
2022-12-13T07:28:17.316Z,100628.75
2022-12-13T07:31:04.107Z,100613.28
2022-12-13T07:33:51.549Z,100613.31
2022-12-13T07:36:41.904Z,100609.03
2022-12-13T07:39:28.661Z,100597.84
2022-12-13T07:42:16.145Z,100594.44
2022-12-13T07:45:02.931Z,100585.00
2022-12-13T07:47:51.533Z,100591.00
2022-12-13T07:50:39.704Z,100585.03
2022-12-13T07:53:28.197Z,100579.03
2022-12-13T07:56:24.700Z,100539.94
2022-12-13T07:59:11.448Z,100513.19
2022-12-13T08:01:58.264Z,100547.03
2022-12-13T08:04:54.660Z,100553.31
2022-12-13T08:07:42.149Z,100547.28
2022-12-13T08:10:29.070Z,100546.47
2022-12-13T08:13:16.482Z,100537.88
2022-12-13T08:16:03.334Z,100541.28
2022-12-13T08:18:50.834Z,100480.38
2022-12-13T08:21:53.965Z,100533.47
2022-12-13T08:24:42.248Z,100403.38
2022-12-13T08:27:28.986Z,100507.66
2022-12-13T08:30:22.911Z,100459.88
2022-12-13T08:32:51.044Z,100407.72
2022-12-13T08:35:37.833Z,100511.22
2022-12-13T08:38:24.611Z,100469.53
2022-12-13T08:41:11.440Z,100503.53
2022-12-13T08:43:38.298Z,100505.28
2022-12-13T08:46:05.828Z,100495.00
2022-12-13T08:48:52.747Z,100496.69
2022-12-13T08:51:39.762Z,100474.41
2022-12-13T08:54:31.681Z,100473.56
2022-12-13T09:00:35.943Z,100434.00
2022-12-13T09:03:26.698Z,100438.38
2022-12-13T09:05:54.045Z,100425.50
2022-12-13T09:08:37.029Z,100325.59
2022-12-13T09:11:34.540Z,100403.69
2022-12-13T09:14:23.749Z,100409.16
2022-12-13T09:17:14.693Z,100401.41
2022-12-13T09:20:41.311Z,100305.22
2022-12-13T09:23:24.358Z,100384.25
2022-12-13T09:26:16.219Z,100383.38
2022-12-13T09:29:10.257Z,100302.75
2022-12-13T09:31:58.181Z,100372.25
2022-12-13T09:34:46.023Z,100369.69
2022-12-13T09:37:33.271Z,100352.38
2022-12-13T09:40:26.026Z,100174.69
2022-12-13T09:43:23.693Z,100352.44
2022-12-13T09:46:24.143Z,100341.25
2022-12-13T09:49:14.079Z,100355.06
2022-12-13T09:52:21.260Z,100234.75
2022-12-13T09:55:12.678Z,100240.00
2022-12-13T09:57:59.730Z,100319.78
2022-12-13T10:00:55.067Z,100210.66
2022-12-13T10:03:43.674Z,100313.03
2022-12-13T10:06:40.176Z,100314.75
2022-12-13T10:09:12.830Z,100296.59
2022-12-13T10:11:55.933Z,100250.66
2022-12-13T10:14:33.930Z,100295.88
2022-12-13T10:17:06.968Z,100301.91
2022-12-13T10:19:51.377Z,100299.34
2022-12-13T10:22:22.873Z,100285.56
2022-12-13T10:25:05.855Z,100226.59
2022-12-13T10:27:47.255Z,100273.50
2022-12-13T10:30:28.443Z,100281.31
2022-12-13T10:33:01.119Z,100277.84
2022-12-13T10:35:30.845Z,100264.97
2022-12-13T10:38:21.135Z,100263.25
2022-12-13T10:41:11.299Z,100266.69
2022-12-13T10:43:58.278Z,100117.91
2022-12-13T10:46:45.154Z,100240.03
2022-12-13T10:49:44.891Z,100224.53
2022-12-13T10:52:43.999Z,100223.69
2022-12-13T10:55:56.600Z,100219.41
2022-12-13T10:59:01.395Z,100208.22
2022-12-13T11:01:49.045Z,100191.06
2022-12-13T11:04:55.756Z,100191.06
2022-12-13T11:07:51.241Z,100178.16
2022-12-13T11:10:45.138Z,100166.03
2022-12-13T11:13:44.111Z,100166.97
2022-12-13T11:16:43.926Z,100170.41
2022-12-13T11:19:56.482Z,100166.13
2022-12-13T11:22:30.059Z,100166.13
2022-12-13T11:25:03.256Z,100169.59
2022-12-13T11:27:42.347Z,100155.84
2022-12-13T11:30:21.240Z,100146.38
2022-12-13T11:32:59.211Z,100142.94
2022-12-13T11:35:36.307Z,100141.22
2022-12-13T11:39:03.076Z,100134.34
2022-12-13T11:42:08.045Z,100090.25
2022-12-13T11:45:31.917Z,100118.00
2022-12-13T11:48:37.803Z,100124.88
2022-12-13T11:51:28.558Z,100108.53
2022-12-13T11:54:26.234Z,100121.44
2022-12-13T11:57:16.533Z,100111.13
2022-12-13T12:00:13.463Z,100082.69
2022-12-13T12:03:09.638Z,100100.84
2022-12-13T12:06:05.195Z,100096.56
2022-12-13T12:09:17.512Z,100095.66
2022-12-13T12:12:24.794Z,100094.78
2022-12-13T12:15:26.598Z,100076.69
2022-12-13T12:17:58.021Z,100060.31
2022-12-13T12:20:44.811Z,100081.94
2022-12-13T12:23:49.657Z,100075.06
2022-12-13T12:26:26.286Z,99986.97
2022-12-13T12:28:56.214Z,100058.78
2022-12-13T12:31:57.496Z,100052.78
2022-12-13T12:35:21.861Z,100060.53
2022-12-13T12:38:39.554Z,100044.19
2022-12-13T12:41:44.923Z,100061.41
2022-12-13T12:44:47.503Z,100044.19
2022-12-13T12:48:42.054Z,100042.47
2022-12-13T12:51:06.447Z,99975.97
2022-12-13T12:54:10.752Z,100027.88
2022-12-13T12:57:41.124Z,100027.00
2022-12-13T13:00:30.866Z,100019.25
2022-12-13T13:03:26.640Z,100019.25
2022-12-13T13:06:22.142Z,100004.63
2022-12-13T13:09:24.593Z,100002.91
2022-12-13T13:12:30.463Z,100000.31
2022-12-13T13:15:18.202Z,99987.31
2022-12-13T13:18:11.089Z,99994.28
2022-12-13T13:20:58.040Z,99992.56
2022-12-13T13:23:47.799Z,99974.44
2022-12-13T13:26:49.018Z,99988.31
2022-12-13T13:29:26.951Z,99986.59
2022-12-13T13:32:28.493Z,99995.16
2022-12-13T13:35:57.383Z,99979.69
2022-12-13T13:39:09.715Z,99941.69
2022-12-13T13:42:11.965Z,99980.56
2022-12-13T13:45:05.190Z,99980.56
2022-12-13T13:47:59.391Z,99785.38
2022-12-13T13:50:59.360Z,99964.22
2022-12-13T13:53:46.888Z,99969.38
2022-12-13T13:56:40.571Z,99971.13
2022-12-13T13:59:46.282Z,99960.81
2022-12-13T14:02:49.197Z,99950.47
2022-12-13T14:06:05.580Z,99947.03
2022-12-13T14:09:07.051Z,99946.16
2022-12-13T14:12:29.390Z,99941.91
2022-12-13T14:15:58.674Z,99947.94
2022-12-13T14:19:25.224Z,99943.59
2022-12-13T14:22:32.634Z,99937.59
2022-12-13T14:25:51.986Z,99933.28
2022-12-13T14:28:45.525Z,99908.25
2022-12-13T14:31:57.128Z,99935.00
2022-12-13T14:34:52.837Z,99899.59
2022-12-13T14:37:49.763Z,99926.41
2022-12-13T14:40:47.779Z,99916.88
2022-12-13T14:43:54.991Z,99912.56
2022-12-13T14:46:42.181Z,99910.91
2022-12-13T14:49:32.651Z,99904.91
2022-12-13T14:52:26.110Z,99910.94
2022-12-13T14:55:20.109Z,99903.19
2022-12-13T14:58:13.147Z,99854.81
2022-12-13T15:01:00.511Z,99804.78
2022-12-13T15:03:48.181Z,99848.81
2022-12-13T15:06:38.257Z,99911.81
2022-12-13T15:09:39.285Z,99904.88
2022-12-13T15:12:36.631Z,99859.25
2022-12-13T15:15:27.736Z,99892.88
2022-12-13T15:18:29.985Z,99886.84
2022-12-13T15:21:21.332Z,99861.81
2022-12-13T15:24:14.051Z,99888.59
2022-12-13T15:27:09.637Z,99881.66
2022-12-13T15:29:57.158Z,99883.38
2022-12-13T15:32:44.208Z,99851.50
2022-12-13T15:35:36.282Z,99872.22
2022-12-13T15:38:28.723Z,99864.47
2022-12-13T15:41:16.693Z,99857.56
2022-12-13T15:44:07.191Z,99863.59
2022-12-13T15:46:57.304Z,99855.00
2022-12-13T15:49:50.474Z,99849.81
2022-12-13T15:52:37.329Z,99849.81
2022-12-13T15:55:28.633Z,99838.66
2022-12-13T15:58:17.895Z,99840.38
2022-12-13T16:01:08.964Z,99701.59
2022-12-13T16:04:04.218Z,99781.69
2022-12-13T16:06:53.288Z,99836.06
2022-12-13T16:09:41.302Z,99825.72
2022-12-13T16:12:37.537Z,99819.69
2022-12-13T16:15:37.055Z,99825.72
2022-12-13T16:18:42.531Z,99680.00
2022-12-13T16:21:29.811Z,99797.28
2022-12-13T16:24:16.891Z,99808.44
2022-12-13T16:27:08.719Z,99806.75
2022-12-13T16:29:56.460Z,99816.19
2022-12-13T16:33:10.924Z,99812.78
2022-12-13T16:35:50.740Z,99805.03
2022-12-13T16:38:38.139Z,99746.41
2022-12-13T16:41:14.907Z,99717.97
2022-12-13T16:44:03.440Z,99791.28
2022-12-13T16:47:12.405Z,99780.91
2022-12-13T16:49:49.609Z,99796.38
2022-12-13T16:52:36.559Z,99786.06
2022-12-13T16:55:23.508Z,99788.66
2022-12-13T16:58:22.016Z,99791.22
2022-12-13T17:01:09.243Z,99792.06
2022-12-13T17:03:56.267Z,99793.78
2022-12-13T17:06:43.968Z,99793.78
2022-12-13T17:09:31.139Z,99773.91
2022-12-13T17:12:18.081Z,99728.25
2022-12-13T17:15:04.914Z,99751.47
2022-12-13T17:17:51.792Z,99746.34
2022-12-13T17:20:39.177Z,99691.25
2022-12-13T17:23:26.337Z,99766.97
2022-12-13T17:26:14.079Z,99775.66
2022-12-13T17:29:00.997Z,99773.91
2022-12-13T17:31:47.927Z,99768.75
2022-12-13T17:34:34.879Z,99756.63
2022-12-13T17:37:21.702Z,99770.47
2022-12-13T17:40:08.674Z,99709.28
2022-12-13T17:42:55.679Z,99761.00
2022-12-13T17:45:42.539Z,99759.28
2022-12-13T17:48:32.711Z,99681.75
2022-12-13T17:51:25.181Z,99744.69
2022-12-13T17:54:12.204Z,99744.66
2022-12-13T17:56:59.248Z,99742.09
2022-12-13T17:59:47.460Z,99747.22
2022-12-13T18:02:34.573Z,99730.84
2022-12-13T18:05:21.627Z,99684.28
2022-12-13T18:08:08.766Z,99731.66
2022-12-13T18:11:15.644Z,99701.50
2022-12-13T18:14:02.952Z,99540.38
2022-12-13T18:16:49.931Z,99744.59
2022-12-13T18:19:36.834Z,99607.59
2022-12-13T18:22:23.875Z,99686.84
2022-12-13T18:25:10.895Z,99752.28
2022-12-13T18:28:01.101Z,99757.44
2022-12-13T18:30:49.747Z,99758.31
2022-12-13T18:33:45.788Z,99754.03
2022-12-13T18:36:34.509Z,99750.59
2022-12-13T18:39:21.973Z,99698.94
2022-12-13T18:42:08.874Z,99725.66
2022-12-13T18:44:55.779Z,99739.38
2022-12-13T18:47:42.751Z,99726.53
2022-12-13T18:50:30.062Z,99735.97
2022-12-13T18:53:17.022Z,99694.59
2022-12-13T18:56:04.182Z,99734.25
2022-12-13T18:58:55.050Z,99727.38
2022-12-13T19:01:42.582Z,99725.66
2022-12-13T19:04:29.538Z,99725.66
2022-12-13T19:07:16.699Z,99722.16
2022-12-13T19:10:03.879Z,99731.63
2022-12-13T19:12:50.797Z,99595.41
2022-12-13T19:15:37.921Z,99735.94
2022-12-13T19:18:25.678Z,99713.53
2022-12-13T19:21:13.782Z,99735.94
2022-12-13T19:24:01.382Z,99732.50
2022-12-13T19:26:49.381Z,99735.94
2022-12-13T19:29:36.623Z,99726.47
2022-12-13T19:32:24.149Z,99727.34
2022-12-13T19:35:11.267Z,99720.47
2022-12-13T19:37:58.105Z,99709.28
2022-12-13T19:40:45.296Z,99713.56
2022-12-13T19:43:32.239Z,99703.19
2022-12-13T19:46:21.171Z,99711.84
2022-12-13T19:49:08.466Z,99707.53
2022-12-13T19:51:55.493Z,99714.41
2022-12-13T19:54:42.514Z,99713.53
2022-12-13T19:57:29.575Z,99646.28
2022-12-13T20:00:16.713Z,99700.59
2022-12-13T20:03:03.831Z,99721.25
2022-12-13T20:05:51.057Z,99715.25
2022-12-13T20:08:38.012Z,99725.56
2022-12-13T20:11:28.290Z,99715.19
2022-12-13T20:14:15.911Z,99734.09
2022-12-13T20:17:03.221Z,99559.25
2022-12-13T20:19:50.246Z,99715.16
2022-12-13T20:22:37.262Z,99579.00
2022-12-13T20:25:24.426Z,99722.09
2022-12-13T20:28:16.172Z,99720.38
2022-12-13T20:31:03.633Z,99717.81
2022-12-13T20:33:50.674Z,99722.09
2022-12-13T20:36:39.779Z,99679.88
2022-12-13T20:39:27.507Z,99712.66
2022-12-13T20:42:14.475Z,99639.34
2022-12-13T20:45:01.401Z,99691.13
2022-12-13T20:47:48.933Z,99714.34
2022-12-13T20:50:36.043Z,99711.81
2022-12-13T20:53:23.228Z,99724.69
2022-12-13T20:56:10.489Z,99702.28
2022-12-13T20:58:59.155Z,99726.41
2022-12-13T21:01:52.828Z,99716.09
2022-12-13T21:04:40.033Z,99715.28
2022-12-13T21:07:27.244Z,99714.41
2022-12-13T21:10:14.263Z,99718.69
2022-12-13T21:13:01.326Z,99718.63
2022-12-13T21:15:28.522Z,99576.34
2022-12-13T21:18:15.625Z,99728.16
2022-12-13T21:21:02.532Z,99718.56
2022-12-13T21:23:50.398Z,99713.44
2022-12-13T21:26:38.030Z,99660.88
2022-12-13T21:29:26.732Z,99735.00
2022-12-13T21:32:14.882Z,99740.16
2022-12-13T21:35:01.762Z,99709.13
2022-12-13T21:37:48.693Z,99729.81
2022-12-13T21:40:35.944Z,99700.50
2022-12-13T21:43:23.225Z,99725.53
2022-12-13T21:46:10.423Z,99733.31
2022-12-13T21:48:59.189Z,99740.13
2022-12-13T21:51:48.639Z,99739.31
2022-12-13T21:54:36.382Z,99691.91
2022-12-13T21:57:21.624Z,99734.16
2022-12-13T22:00:08.694Z,99737.63
2022-12-13T22:02:59.822Z,99633.31
2022-12-13T22:05:46.810Z,99732.44
2022-12-13T22:08:33.707Z,99732.47
2022-12-13T22:11:35.816Z,99727.31
2022-12-13T22:14:23.920Z,99717.84
2022-12-13T22:17:11.406Z,99612.66
2022-12-13T22:19:58.365Z,99741.91
2022-12-13T22:22:45.563Z,99737.63
2022-12-13T22:25:32.518Z,99673.84
2022-12-13T22:28:19.505Z,99728.19
2022-12-13T22:31:13.430Z,99729.91
2022-12-13T22:34:00.367Z,99719.59
2022-12-13T22:36:47.302Z,99674.66
2022-12-13T22:39:38.966Z,99545.47
2022-12-13T22:42:25.874Z,99705.75
2022-12-13T22:45:12.805Z,99724.72
2022-12-13T22:47:59.708Z,99717.88
2022-12-13T22:50:46.682Z,99719.56
2022-12-13T22:53:33.625Z,99724.72
2022-12-13T22:56:28.833Z,99712.53
2022-12-13T22:59:21.542Z,99736.72
2022-12-13T23:02:08.653Z,99731.56
2022-12-13T23:04:55.725Z,99722.09
2022-12-13T23:07:42.763Z,99654.78
2022-12-13T23:10:34.701Z,99732.41
2022-12-13T23:13:01.902Z,99734.97
2022-12-13T23:15:30.714Z,99719.44
2022-12-13T23:17:58.004Z,99733.28
2022-12-13T23:20:25.177Z,99729.81
2022-12-13T23:22:52.095Z,99676.34
2022-12-13T23:25:19.150Z,99740.13
2022-12-13T23:27:46.237Z,99708.16
2022-12-13T23:30:14.274Z,99690.09
2022-12-13T23:32:41.285Z,99734.91
2022-12-13T23:35:10.366Z,99722.88
2022-12-13T23:37:37.738Z,99701.31
2022-12-13T23:40:05.290Z,99741.84
2022-12-13T23:42:32.316Z,99722.84
2022-12-13T23:44:59.378Z,99625.41
2022-12-13T23:47:26.359Z,99734.09
2022-12-13T23:49:53.537Z,99596.09
2022-12-13T23:52:20.469Z,99743.47
2022-12-13T23:54:47.345Z,99614.22
2022-12-13T23:57:14.377Z,99587.50
2022-12-13T23:59:41.296Z,99743.50
